La Verne, CA (91750)

9:59 PM PST on December 21, 2014 (GMT -0800)
Bonita High School | Change Station
CLOSE
Current Station
Personal Weather Station
Location: La Verne, CA
Elevation: 1049 ft
Nearby Weather Stations

Elev 1049 ft 34.11 °N, 117.76 °W | Updated 9 seconds ago

Clear
Clear
52.5 °F
Feels Like 52.5 °F
N
0.0
Wind Variable Wind from West
Gusts 0.0 mph

Today
High -- | Low -- °F
--% Chance of Precip.
Yesterday
High -- | Low -- °F
Precip. -- in
6:52 AM 4:45 PM
New Moon, 0% visible
Pressure 30.06 in
Visibility 6.0 miles
Clouds Few 24000 ft
Dew Point 48 °F
Humidity 86%
Rainfall 0.00 in
Snow Depth Not available.
UV 0 out of 12
Pollen 4.40 out of 12
Air Quality Not available.
Flu Activity Not available.
METAR KONT 220553Z 02004KT 6SM HZ FEW240 13/09 A3006 RMK AO2 SLP178 T01330089 10183 20122 55000

More Conditions Fewer Conditions

Pressure 30.06 in
Visibility 6.0 miles
Clouds Few 24000 ft
Dew Point 48 °F
Humidity 86%
Rainfall 0.00 in
Snow Depth Not available.
UV 0 out of 12
Pollen 4.40 out of 12
Air Quality Not available.
Flu Activity Not available.
METAR KONT 220553Z 02004KT 6SM HZ FEW240 13/09 A3006 RMK AO2 SLP178 T01330089 10183 20122 55000

More Conditions Fewer Conditions

10-Day Weather Forecast

Almanac

Astronomy

Dec. 21, 2014 Rise Set
Actual Time
Civil Twilight
Nautical Twilight
Astronomical Twilight
Moon
Length of Visible Light
Length of Day
Tomorrow will be .
, % of the Moon is Illuminated

Today's Extremes

State Highs State Lows

Community

WunderPhotos

Upload Photos

1,779,549 photos uploaded!

WunderBlogs® & News

Nearby

Air Quality

  Air Quality AQ Index Pollutant
Not available.

Snow Depth

Station Depth Elevation

Earthquake Activity

City Distance Mag. Time & Date
Minimum magnitude displayed is 2.5.

Coastal Water Temperatures

Place Temperature

Nearby Weather Stations